Time;durP1;ratioP1;P1;durP2;ratioP2;P2;SDS_P1;SDS_P2;PMS_P1;PMS_P2;Temp;Humidity;BMP_temperature;BMP_pressure;BME280_temperature;BME280_humidity;BME280_pressure;Samples;Min_cycle;Max_cycle;Signal;HPM_P1;HPM_P2
2022/09/01 00:00:22;;;;;;;1.13;0.80;;;22.00;99.90;;;;;;1038919;28;20016;-70
2022/09/01 00:00:53;;;;;;;1.45;0.60;;;22.00;99.90;;;;;;1038375;28;20091;-70
2022/09/01 00:01:26;;;;;;;1.53;0.70;;;22.00;99.90;;;;;;1034332;28;20516;-70
2022/09/01 00:01:56;;;;;;;2.22;0.60;;;22.00;99.90;;;;;;1034339;28;20014;-70
2022/09/01 00:02:27;;;;;;;1.07;0.80;;;22.00;99.90;;;;;;1037859;28;20113;-70
2022/09/01 00:02:58;;;;;;;0.87;0.60;;;22.00;99.90;;;;;;1042411;28;20009;-71
2022/09/01 00:03:29;;;;;;;0.70;0.57;;;21.90;99.90;;;;;;1042627;28;20991;-71
2022/09/01 00:04:02;;;;;;;1.40;0.60;;;21.90;99.90;;;;;;1038254;28;20041;-71
2022/09/01 00:04:35;;;;;;;1.65;0.60;;;21.90;99.90;;;;;;1038366;28;20041;-71
2022/09/01 00:05:06;;;;;;;0.55;0.55;;;22.00;99.90;;;;;;1039129;28;20113;-71
2022/09/01 00:05:37;;;;;;;1.83;0.75;;;21.90;99.90;;;;;;1042495;28;20222;-71
2022/09/01 00:06:09;;;;;;;0.80;0.70;;;22.00;99.90;;;;;;1042425;28;20757;-71
2022/09/01 00:06:39;;;;;;;0.60;0.60;;;21.90;99.90;;;;;;1042525;28;20123;-71
2022/09/01 00:07:12;;;;;;;0.80;0.70;;;21.90;99.90;;;;;;1042439;28;20178;-70
2022/09/01 00:07:42;;;;;;;1.17;0.70;;;22.00;99.90;;;;;;1042676;28;20017;-71
2022/09/01 00:08:13;;;;;;;1.40;1.03;;;22.00;99.90;;;;;;1042594;28;20058;-70
2022/09/01 00:08:44;;;;;;;0.70;0.67;;;22.00;99.90;;;;;;1042363;28;20021;-69
2022/09/01 00:09:19;;;;;;;0.60;0.60;;;22.00;99.90;;;;;;1042359;28;20024;-71
2022/09/01 00:09:50;;;;;;;0.50;0.50;;;22.00;99.90;;;;;;1042739;28;20025;-71
2022/09/01 00:10:21;;;;;;;0.55;0.50;;;22.00;99.90;;;;;;1042755;28;20103;-71
2022/09/01 00:10:51;;;;;;;2.27;0.70;;;22.00;99.90;;;;;;1038481;28;20424;-71
2022/09/01 00:11:24;;;;;;;1.97;0.60;;;21.90;99.90;;;;;;1038421;28;20029;-71
2022/09/01 00:11:55;;;;;;;2.53;0.80;;;22.00;99.90;;;;;;1039190;28;20021;-71
2022/09/01 00:12:26;;;;;;;1.27;0.80;;;21.90;99.90;;;;;;1038371;28;20017;-71
2022/09/01 00:12:58;;;;;;;1.35;1.05;;;22.00;99.90;;;;;;1038921;28;20799;-70
2022/09/01 00:13:32;;;;;;;0.73;0.60;;;21.90;99.90;;;;;;1038674;28;20113;-70
2022/09/01 00:14:05;;;;;;;0.80;0.70;;;21.90;99.90;;;;;;1043021;28;20086;-71
2022/09/01 00:14:39;;;;;;;1.40;0.77;;;21.90;99.90;;;;;;1042582;28;20154;-70
2022/09/01 00:15:12;;;;;;;1.40;1.00;;;21.90;99.90;;;;;;1042652;28;20511;-71
2022/09/01 00:15:42;;;;;;;1.27;0.75;;;21.90;99.90;;;;;;1042333;28;20533;-71
2022/09/01 00:16:15;;;;;;;1.63;0.80;;;21.90;99.90;;;;;;1042987;28;20549;-70
2022/09/01 00:16:46;;;;;;;0.70;0.70;;;21.90;99.90;;;;;;1042555;28;20092;-71
2022/09/01 00:17:16;;;;;;;0.80;0.70;;;21.90;99.90;;;;;;1042773;28;20028;-70
2022/09/01 00:17:47;;;;;;;3.13;0.70;;;21.90;99.90;;;;;;1042351;28;20100;-71
2022/09/01 00:18:18;;;;;;;2.20;0.83;;;21.90;99.90;;;;;;1042843;28;20032;-71
2022/09/01 00:18:52;;;;;;;0.77;0.63;;;21.90;99.90;;;;;;1042535;28;20070;-71
2022/09/01 00:19:23;;;;;;;1.48;0.80;;;21.90;99.90;;;;;;1042665;28;20584;-71
2022/09/01 00:19:54;;;;;;;0.82;0.63;;;21.90;99.90;;;;;;1042687;28;20513;-71
2022/09/01 00:20:25;;;;;;;1.07;0.80;;;21.80;99.90;;;;;;1043090;28;20521;-70
2022/09/01 00:20:58;;;;;;;1.00;0.70;;;21.90;99.90;;;;;;1042840;28;20052;-71
2022/09/01 00:21:32;;;;;;;1.50;0.82;;;21.80;99.90;;;;;;1042635;28;20024;-70
2022/09/01 00:22:04;;;;;;;1.60;0.90;;;21.80;99.90;;;;;;1042609;28;20026;-71
2022/09/01 00:22:34;;;;;;;1.33;0.70;;;21.80;99.90;;;;;;1042654;28;20013;-71
2022/09/01 00:23:05;;;;;;;1.15;1.00;;;21.80;99.90;;;;;;1042544;28;20021;-70
2022/09/01 00:23:36;;;;;;;1.50;0.87;;;21.80;99.90;;;;;;1038749;28;20025;-70
2022/09/01 00:24:09;;;;;;;1.00;0.70;;;21.80;99.90;;;;;;1038471;28;20575;-71
2022/09/01 00:24:40;;;;;;;2.13;0.65;;;21.80;99.90;;;;;;1043901;28;20021;-72
2022/09/01 00:25:10;;;;;;;1.03;0.73;;;21.80;99.90;;;;;;1046240;28;20013;-71
2022/09/01 00:25:41;;;;;;;0.77;0.70;;;21.80;99.90;;;;;;1043193;28;20036;-71
2022/09/01 00:26:12;;;;;;;1.20;0.53;;;21.80;99.90;;;;;;1042520;28;20021;-71
2022/09/01 00:26:43;;;;;;;0.83;0.70;;;21.80;99.90;;;;;;1042726;28;20017;-71
2022/09/01 00:27:14;;;;;;;0.70;0.70;;;21.80;99.90;;;;;;1038596;28;20017;-71
2022/09/01 00:27:47;;;;;;;1.80;0.90;;;21.80;99.90;;;;;;1030352;28;20061;-71
2022/09/01 00:28:17;;;;;;;2.15;0.75;;;21.70;99.90;;;;;;1030287;28;20015;-70
2022/09/01 00:28:49;;;;;;;0.90;0.70;;;21.70;99.90;;;;;;1031041;28;20026;-71
2022/09/01 00:29:21;;;;;;;1.17;0.50;;;21.70;99.90;;;;;;1035388;28;20636;-70
2022/09/01 00:29:52;;;;;;;1.33;0.80;;;21.70;99.90;;;;;;1043530;28;20423;-69
2022/09/01 00:30:23;;;;;;;0.70;0.70;;;21.70;99.90;;;;;;1042899;28;20376;-71
2022/09/01 00:30:53;;;;;;;1.23;0.70;;;21.70;99.90;;;;;;1043193;28;20410;-70
2022/09/01 00:31:25;;;;;;;0.80;0.70;;;21.70;99.90;;;;;;1042526;28;20428;-71
2022/09/01 00:31:58;;;;;;;0.85;0.80;;;21.70;99.90;;;;;;1043373;28;20045;-70
2022/09/01 00:32:29;;;;;;;1.40;1.00;;;21.70;99.90;;;;;;1043232;28;20154;-71
2022/09/01 00:33:00;;;;;;;0.77;0.70;;;21.70;99.90;;;;;;1043193;28;20017;-70
2022/09/01 00:33:31;;;;;;;1.13;0.80;;;21.70;99.90;;;;;;1042443;28;20131;-70
2022/09/01 00:34:02;;;;;;;0.50;0.50;;;21.70;99.90;;;;;;1042813;28;20021;-71
2022/09/01 00:34:33;;;;;;;0.93;0.80;;;21.70;99.90;;;;;;1042409;28;20053;-70
2022/09/01 00:35:04;;;;;;;1.13;0.73;;;21.70;99.90;;;;;;1043057;28;20297;-70
2022/09/01 00:35:34;;;;;;;0.82;0.73;;;21.70;99.90;;;;;;1042879;28;20017;-71
2022/09/01 00:36:05;;;;;;;1.03;0.77;;;21.70;99.90;;;;;;1042766;28;20014;-71
2022/09/01 00:36:36;;;;;;;0.97;0.60;;;21.70;99.90;;;;;;1038374;28;20033;-70
2022/09/01 00:37:07;;;;;;;1.17;0.80;;;21.70;99.90;;;;;;1038686;28;20267;-70
2022/09/01 00:37:38;;;;;;;1.03;0.60;;;21.70;99.90;;;;;;1038800;28;20244;-70
2022/09/01 00:38:08;;;;;;;1.27;0.93;;;21.70;99.90;;;;;;1045575;28;20056;-70
2022/09/01 00:38:39;;;;;;;1.07;0.70;;;21.70;99.90;;;;;;1043377;28;20020;-70
2022/09/01 00:39:11;;;;;;;2.07;0.77;;;21.70;99.90;;;;;;1038779;28;20033;-71
2022/09/01 00:39:42;;;;;;;1.63;0.85;;;21.70;99.90;;;;;;1038732;28;20192;-71
2022/09/01 00:40:15;;;;;;;1.57;0.70;;;21.70;99.90;;;;;;1041051;28;20087;-71
2022/09/01 00:40:45;;;;;;;0.80;0.70;;;21.70;99.90;;;;;;1042349;28;20035;-71
2022/09/01 00:41:19;;;;;;;1.77;1.00;;;21.70;99.90;;;;;;1042834;28;20115;-71
2022/09/01 00:41:50;;;;;;;1.77;1.00;;;21.70;99.90;;;;;;1041944;28;20565;-69
2022/09/01 00:42:20;;;;;;;0.97;0.80;;;21.70;99.90;;;;;;1042905;28;20545;-70
2022/09/01 00:42:52;;;;;;;2.07;0.60;;;21.70;99.90;;;;;;1043087;28;20048;-70
2022/09/01 00:43:39;;;;;;;3.08;0.60;;;21.70;99.90;;;;;;1042471;28;20099;-70
2022/09/01 00:44:14;;;;;;;1.70;0.95;;;21.70;99.90;;;;;;1038519;28;20515;-70
2022/09/01 00:44:44;;;;;;;0.63;0.63;;;21.70;99.90;;;;;;1038519;28;20036;-70
2022/09/01 00:45:15;;;;;;;1.37;0.93;;;21.70;99.90;;;;;;1041510;28;20084;-70
2022/09/01 00:45:46;;;;;;;3.40;1.10;;;21.70;99.90;;;;;;1039118;28;20028;-70
2022/09/01 00:46:23;;;;;;;0.77;0.70;;;21.70;99.90;;;;;;1042556;28;20020;-70
2022/09/01 00:46:55;;;;;;;1.13;0.80;;;21.70;99.90;;;;;;1042762;28;20025;-70
2022/09/01 00:47:26;;;;;;;1.58;0.90;;;21.70;99.90;;;;;;1042558;28;20017;-69
2022/09/01 00:47:56;;;;;;;1.00;0.70;;;21.70;99.90;;;;;;1043134;28;20032;-70
2022/09/01 00:48:27;;;;;;;1.87;0.80;;;21.70;99.90;;;;;;1042408;28;20480;-71
2022/09/01 00:49:28;;;;;;;2.90;0.70;;;21.70;99.90;;;;;;1042794;28;20021;-70
2022/09/01 00:49:59;;;;;;;0.95;0.60;;;21.70;99.90;;;;;;1038898;28;20026;-70
2022/09/01 00:50:29;;;;;;;1.90;1.07;;;21.70;99.90;;;;;;1041061;28;20021;-69
2022/09/01 00:51:01;;;;;;;1.00;0.70;;;21.70;99.90;;;;;;1042945;28;20021;-70
2022/09/01 00:51:33;;;;;;;0.85;0.60;;;21.70;99.90;;;;;;1042347;28;20020;-70
2022/09/01 00:52:21;;;;;;;0.77;0.73;;;21.70;99.90;;;;;;1042632;28;20472;-70
2022/09/01 00:52:54;;;;;;;1.60;0.80;;;21.70;99.90;;;;;;1043548;28;20021;-70
2022/09/01 00:53:25;;;;;;;0.75;0.75;;;21.70;99.90;;;;;;1042787;28;20251;-70
2022/09/01 00:53:57;;;;;;;2.58;0.70;;;21.70;99.90;;;;;;1043935;28;20017;-71
2022/09/01 00:54:34;;;;;;;1.08;0.98;;;21.70;99.90;;;;;;1043529;28;20021;-70
2022/09/01 00:55:13;;;;;;;1.33;0.70;;;21.70;99.90;;;;;;1043950;28;20017;-73
2022/09/01 00:55:44;;;;;;;0.98;0.70;;;21.70;99.90;;;;;;1043740;28;20111;-69
2022/09/01 00:56:15;;;;;;;0.67;0.60;;;21.60;99.90;;;;;;1044070;28;20017;-70
2022/09/01 00:56:48;;;;;;;1.15;0.98;;;21.60;99.90;;;;;;1043566;28;20045;-69
2022/09/01 00:57:18;;;;;;;1.08;0.80;;;21.60;99.90;;;;;;1043413;28;20025;-70
2022/09/01 00:57:49;;;;;;;0.60;0.60;;;21.60;99.90;;;;;;1043511;28;20033;-71
2022/09/01 00:58:20;;;;;;;0.93;0.93;;;21.60;99.90;;;;;;1043589;28;20029;-71
2022/09/01 00:58:52;;;;;;;0.80;0.63;;;21.60;99.90;;;;;;1043125;28;20027;-71
2022/09/01 00:59:24;;;;;;;1.48;0.80;;;21.60;99.90;;;;;;1043536;28;20017;-71
2022/09/01 01:00:02;;;;;;;1.23;0.82;;;21.60;99.90;;;;;;1043465;28;20009;-71
2022/09/01 01:00:39;;;;;;;0.62;0.62;;;21.60;99.90;;;;;;1043888;28;20138;-71
2022/09/01 01:01:11;;;;;;;0.90;0.75;;;21.60;99.90;;;;;;1043838;28;20013;-71
2022/09/01 01:01:41;;;;;;;0.80;0.70;;;21.60;99.90;;;;;;1043883;28;20523;-71
2022/09/01 01:02:13;;;;;;;4.00;1.10;;;21.60;99.90;;;;;;1043653;28;20500;-71
2022/09/01 01:02:44;;;;;;;1.02;0.60;;;21.60;99.90;;;;;;1043981;28;20117;-70
2022/09/01 01:03:15;;;;;;;0.98;0.80;;;21.60;99.90;;;;;;1044064;28;20013;-71
2022/09/01 01:03:45;;;;;;;1.53;0.90;;;21.60;99.90;;;;;;1043368;28;20017;-71
2022/09/01 01:04:16;;;;;;;2.47;0.70;;;21.50;99.90;;;;;;1043177;28;20251;-71
2022/09/01 01:04:47;;;;;;;0.70;0.60;;;21.50;99.90;;;;;;1043260;28;20550;-70
2022/09/01 01:05:20;;;;;;;1.90;0.80;;;21.50;99.90;;;;;;1043197;28;20041;-71
2022/09/01 01:05:55;;;;;;;1.35;0.82;;;21.50;99.90;;;;;;1043575;28;20072;-71
2022/09/01 01:06:29;;;;;;;1.77;0.95;;;21.50;99.90;;;;;;1043450;28;20025;-71
2022/09/01 01:07:01;;;;;;;1.23;0.93;;;21.50;99.90;;;;;;1043386;28;20017;-71
2022/09/01 01:07:37;;;;;;;2.33;1.23;;;21.50;99.90;;;;;;1043139;28;20106;-71
2022/09/01 01:08:10;;;;;;;1.85;0.80;;;21.50;99.90;;;;;;1043721;28;20067;-71
2022/09/01 01:08:48;;;;;;;2.40;1.00;;;21.50;99.90;;;;;;1043451;28;20553;-71
2022/09/01 01:09:20;;;;;;;0.98;0.90;;;21.50;99.90;;;;;;1037774;28;20546;-71
2022/09/01 01:09:51;;;;;;;1.52;0.80;;;21.50;99.90;;;;;;1039321;28;20014;-71
2022/09/01 01:10:25;;;;;;;0.90;0.77;;;21.50;99.90;;;;;;1039131;28;20021;-71
2022/09/01 01:10:56;;;;;;;1.13;0.80;;;21.50;99.90;;;;;;1039170;28;20021;-71
2022/09/01 01:11:30;;;;;;;2.10;0.80;;;21.50;99.90;;;;;;1043189;28;20017;-71
2022/09/01 01:12:04;;;;;;;2.03;0.70;;;21.50;99.90;;;;;;1043683;28;20028;-71
2022/09/01 01:12:36;;;;;;;1.60;1.13;;;21.50;99.90;;;;;;1043108;28;20621;-71
2022/09/01 01:13:14;;;;;;;1.00;0.60;;;21.50;99.90;;;;;;1043842;28;20414;-71
2022/09/01 01:14:11;;;;;;;0.98;0.70;;;21.40;99.90;;;;;;1043571;28;20136;-71
2022/09/01 01:14:48;;;;;;;0.77;0.77;;;21.40;99.90;;;;;;1036667;28;20019;-71
2022/09/01 01:15:19;;;;;;;1.35;1.02;;;21.40;99.90;;;;;;1039514;28;20045;-71
2022/09/01 01:15:50;;;;;;;1.00;0.60;;;21.40;99.90;;;;;;1040258;28;20020;-71
2022/09/01 01:16:23;;;;;;;1.37;0.83;;;21.40;99.90;;;;;;1043565;28;20242;-71
2022/09/01 01:16:54;;;;;;;1.20;0.68;;;21.40;99.90;;;;;;1043540;28;20090;-71
2022/09/01 01:17:24;;;;;;;0.70;0.70;;;21.40;99.90;;;;;;1043806;28;20016;-71
2022/09/01 01:17:55;;;;;;;2.17;1.17;;;21.40;99.90;;;;;;1043377;28;20032;-71
2022/09/01 01:18:25;;;;;;;1.57;1.07;;;21.40;99.90;;;;;;1043459;28;20024;-71
2022/09/01 01:18:56;;;;;;;0.67;0.53;;;21.40;99.90;;;;;;1043367;28;20074;-71
2022/09/01 01:23:07;;;;;;;1.05;0.90;;;21.40;99.90;;;;;;1039809;28;20103;-71
2022/09/01 01:23:48;;;;;;;1.60;0.90;;;21.40;99.90;;;;;;1040829;28;20376;-70
2022/09/01 01:24:33;;;;;;;1.50;0.90;;;21.40;99.90;;;;;;1043639;28;20017;-70
2022/09/01 01:25:04;;;;;;;1.52;0.80;;;21.50;99.90;;;;;;1043269;28;20025;-70
2022/09/01 01:25:45;;;;;;;1.87;1.00;;;21.50;99.90;;;;;;1043529;28;20013;-70
2022/09/01 01:26:15;;;;;;;0.90;0.80;;;21.50;99.90;;;;;;1043326;28;20022;-70
2022/09/01 01:26:46;;;;;;;1.63;0.97;;;21.50;99.90;;;;;;1043260;28;20033;-70
2022/09/01 01:27:20;;;;;;;1.43;0.80;;;21.50;99.90;;;;;;1043667;28;20024;-70
2022/09/01 01:27:51;;;;;;;0.70;0.70;;;21.50;99.90;;;;;;1043789;28;20021;-69
2022/09/01 01:28:30;;;;;;;1.30;0.80;;;21.50;99.90;;;;;;1043053;28;20009;-70
2022/09/01 01:29:01;;;;;;;0.95;0.70;;;21.50;99.90;;;;;;1043609;28;20028;-70
2022/09/01 01:29:34;;;;;;;1.50;0.88;;;21.50;99.90;;;;;;1038831;28;20056;-70
2022/09/01 01:30:09;;;;;;;1.55;0.70;;;21.50;99.90;;;;;;1041087;28;20022;-70
2022/09/01 01:30:49;;;;;;;1.67;0.90;;;21.50;99.90;;;;;;1043186;28;20107;-70
2022/09/01 01:31:22;;;;;;;1.73;0.50;;;21.50;99.90;;;;;;1043110;28;20442;-69
2022/09/01 01:31:53;;;;;;;0.65;0.65;;;21.50;99.90;;;;;;1043771;28;20091;-71
2022/09/01 01:32:25;;;;;;;3.33;0.73;;;21.50;99.90;;;;;;1043451;28;20025;-70
2022/09/01 01:32:56;;;;;;;1.00;0.70;;;21.40;99.90;;;;;;1043985;28;20028;-69
2022/09/01 01:33:31;;;;;;;0.80;0.52;;;21.40;99.90;;;;;;1043033;28;20020;-70
2022/09/01 01:34:06;;;;;;;1.63;0.98;;;21.40;99.90;;;;;;1043494;28;20016;-70
2022/09/01 01:34:42;;;;;;;1.70;1.00;;;21.40;99.90;;;;;;1042929;28;20044;-70
2022/09/01 01:35:15;;;;;;;1.27;0.90;;;21.40;99.90;;;;;;1043592;28;20036;-70
2022/09/01 01:35:45;;;;;;;1.20;0.68;;;21.40;99.90;;;;;;1039321;28;20029;-70
2022/09/01 01:36:25;;;;;;;1.10;0.80;;;21.40;99.90;;;;;;1040328;28;20053;-70
2022/09/01 01:36:58;;;;;;;0.50;0.50;;;21.40;99.90;;;;;;1043491;28;20100;-70
2022/09/01 01:37:29;;;;;;;1.17;0.70;;;21.40;99.90;;;;;;1043409;28;20037;-70
2022/09/01 01:38:01;;;;;;;1.87;0.97;;;21.40;99.90;;;;;;1043871;28;20073;-70
2022/09/01 01:38:34;;;;;;;0.73;0.68;;;21.40;99.90;;;;;;1043207;28;20017;-70
2022/09/01 01:39:20;;;;;;;0.77;0.60;;;21.40;99.90;;;;;;1043173;28;20048;-70
2022/09/01 01:39:51;;;;;;;0.98;0.77;;;21.40;99.90;;;;;;1043210;28;20021;-70
2022/09/01 01:40:22;;;;;;;1.40;0.93;;;21.40;99.90;;;;;;1045848;28;20013;-70
2022/09/01 01:40:53;;;;;;;1.63;0.70;;;21.40;99.90;;;;;;1045512;28;20041;-70
2022/09/01 01:41:24;;;;;;;1.15;0.88;;;21.40;99.90;;;;;;1043682;28;20075;-71
2022/09/01 01:41:57;;;;;;;1.13;0.80;;;21.40;99.90;;;;;;1043245;28;20009;-70
2022/09/01 01:42:28;;;;;;;1.25;0.90;;;21.40;99.90;;;;;;1043707;28;20128;-70
2022/09/01 01:43:00;;;;;;;0.90;0.60;;;21.40;99.90;;;;;;1043225;28;20058;-70
2022/09/01 01:43:31;;;;;;;1.83;0.70;;;21.40;99.90;;;;;;1039187;28;20018;-70
2022/09/01 01:44:04;;;;;;;1.23;0.70;;;21.40;99.90;;;;;;1039005;28;20013;-70
2022/09/01 01:44:37;;;;;;;1.17;0.90;;;21.40;99.90;;;;;;1040114;28;20006;-70
2022/09/01 01:45:11;;;;;;;2.15;1.00;;;21.40;99.90;;;;;;1038769;28;20081;-70
2022/09/01 01:45:41;;;;;;;1.63;0.80;;;21.40;99.90;;;;;;1036530;28;20894;-70
2022/09/01 01:46:13;;;;;;;2.60;0.90;;;21.40;99.90;;;;;;1039319;28;20484;-69
2022/09/01 01:46:49;;;;;;;1.38;0.73;;;21.40;99.90;;;;;;1039945;28;20109;-71
2022/09/01 01:47:20;;;;;;;1.10;0.73;;;21.40;99.90;;;;;;1039219;28;20013;-70
2022/09/01 01:47:52;;;;;;;1.42;0.77;;;21.40;99.90;;;;;;1039578;28;20021;-70
2022/09/01 01:48:23;;;;;;;1.13;1.00;;;21.30;99.90;;;;;;1039589;28;20013;-70
2022/09/01 01:48:54;;;;;;;0.83;0.83;;;21.30;99.90;;;;;;1043034;28;20132;-70
2022/09/01 01:49:27;;;;;;;0.80;0.80;;;21.30;99.90;;;;;;1042938;28;20021;-70
2022/09/01 01:49:58;;;;;;;1.67;1.00;;;21.30;99.90;;;;;;1043447;28;20052;-70
2022/09/01 01:50:34;;;;;;;1.00;0.80;;;21.30;99.90;;;;;;1042945;28;20014;-70
2022/09/01 01:51:05;;;;;;;0.98;0.80;;;21.30;99.90;;;;;;1043500;28;20013;-70
2022/09/01 01:51:36;;;;;;;1.05;0.88;;;21.30;99.90;;;;;;1043174;28;20028;-70
2022/09/01 01:52:07;;;;;;;2.03;0.70;;;21.30;99.90;;;;;;1039126;28;20021;-69
2022/09/01 01:52:37;;;;;;;1.80;1.00;;;21.30;99.90;;;;;;1039249;28;20021;-70
2022/09/01 01:53:10;;;;;;;1.90;0.80;;;21.30;99.90;;;;;;1043310;28;20017;-70
2022/09/01 01:53:41;;;;;;;1.60;1.08;;;21.30;99.90;;;;;;1043282;28;20375;-70
2022/09/01 01:54:12;;;;;;;0.68;0.50;;;21.30;99.90;;;;;;1043753;28;20479;-70
2022/09/01 01:54:45;;;;;;;1.30;0.75;;;21.30;99.90;;;;;;1042923;28;20032;-70
2022/09/01 01:55:18;;;;;;;0.60;0.60;;;21.30;99.90;;;;;;1043336;28;20555;-70
2022/09/01 01:55:48;;;;;;;0.70;0.70;;;21.30;99.90;;;;;;1042941;28;20407;-68
2022/09/01 01:56:21;;;;;;;1.50;0.90;;;21.30;99.90;;;;;;1043576;28;20484;-70
2022/09/01 01:56:52;;;;;;;1.23;0.90;;;21.30;99.90;;;;;;1042999;28;20067;-70
2022/09/01 01:57:22;;;;;;;1.20;0.80;;;21.30;99.90;;;;;;1043217;28;20031;-70
2022/09/01 01:57:53;;;;;;;1.30;0.90;;;21.30;99.90;;;;;;1043644;28;20056;-70
2022/09/01 01:58:24;;;;;;;1.40;0.80;;;21.30;99.90;;;;;;1043483;28;20403;-70
2022/09/01 01:58:56;;;;;;;1.13;0.82;;;21.30;99.90;;;;;;1043396;28;20017;-70
2022/09/01 01:59:28;;;;;;;0.90;0.80;;;21.30;99.90;;;;;;1043756;28;20070;-70
2022/09/01 01:59:59;;;;;;;1.48;0.80;;;21.30;99.90;;;;;;1043574;28;20013;-70
2022/09/01 02:00:33;;;;;;;2.57;1.07;;;21.30;99.90;;;;;;1043619;28;20021;-71
2022/09/01 02:01:10;;;;;;;1.48;0.80;;;21.30;99.90;;;;;;1043001;28;20452;-70
2022/09/01 02:01:44;;;;;;;0.88;0.65;;;21.30;99.90;;;;;;1043171;28;20013;-70
2022/09/01 02:02:14;;;;;;;0.75;0.70;;;21.30;99.90;;;;;;1043357;28;20009;-70
2022/09/01 02:02:51;;;;;;;1.33;0.60;;;21.30;99.90;;;;;;1042981;28;20013;-70
2022/09/01 02:03:27;;;;;;;0.85;0.77;;;21.30;99.90;;;;;;1043515;28;20025;-70
2022/09/01 02:03:59;;;;;;;1.73;0.80;;;21.30;99.90;;;;;;1043102;28;20472;-70
2022/09/01 02:04:32;;;;;;;0.80;0.70;;;21.40;99.90;;;;;;1043291;28;20058;-70
2022/09/01 02:05:04;;;;;;;0.85;0.80;;;21.30;99.90;;;;;;1042518;28;20023;-71
2022/09/01 02:05:35;;;;;;;1.17;0.80;;;21.40;99.90;;;;;;1043178;28;20013;-70
2022/09/01 02:06:08;;;;;;;1.03;0.80;;;21.40;99.90;;;;;;1043019;28;20025;-70
2022/09/01 02:06:44;;;;;;;1.52;0.95;;;21.40;99.90;;;;;;1039038;28;20017;-70
2022/09/01 02:07:15;;;;;;;1.95;0.93;;;21.40;99.90;;;;;;1038932;28;20037;-70
2022/09/01 02:07:46;;;;;;;2.10;0.70;;;21.40;99.90;;;;;;1040473;28;20029;-70
2022/09/01 02:08:19;;;;;;;1.38;0.70;;;21.40;99.90;;;;;;1043085;28;20263;-70
2022/09/01 02:08:51;;;;;;;0.70;0.70;;;21.40;99.90;;;;;;1043101;28;20021;-70
2022/09/01 02:09:23;;;;;;;1.70;1.00;;;21.30;99.90;;;;;;1042892;28;20021;-70
2022/09/01 02:09:54;;;;;;;1.70;0.90;;;21.30;99.90;;;;;;1043464;28;20021;-70
2022/09/01 02:10:29;;;;;;;2.00;0.77;;;21.30;99.90;;;;;;1043326;28;20021;-70
2022/09/01 02:11:00;;;;;;;1.00;0.90;;;21.30;99.90;;;;;;1040108;28;20407;-70
2022/09/01 02:11:36;;;;;;;1.57;0.70;;;21.30;99.90;;;;;;1043088;28;20708;-70
2022/09/01 02:12:07;;;;;;;1.40;0.80;;;21.30;99.90;;;;;;1043298;28;20639;-70
2022/09/01 02:12:40;;;;;;;0.77;0.70;;;21.30;99.90;;;;;;1039840;28;20176;-74
2022/09/01 02:13:16;;;;;;;1.42;0.80;;;21.30;99.90;;;;;;1043348;28;20111;-70
2022/09/01 02:13:48;;;;;;;0.93;0.80;;;21.30;99.90;;;;;;1043375;28;20068;-70
2022/09/01 02:14:20;;;;;;;1.63;0.95;;;21.30;99.90;;;;;;1040248;28;20080;-70
2022/09/01 02:14:53;;;;;;;1.13;1.02;;;21.30;99.90;;;;;;1043184;28;20028;-70
2022/09/01 02:15:24;;;;;;;2.45;1.20;;;21.30;99.90;;;;;;1043440;28;20021;-70
2022/09/01 02:15:59;;;;;;;0.70;0.70;;;21.30;99.90;;;;;;1043300;28;20483;-70
2022/09/01 02:16:32;;;;;;;1.17;0.90;;;21.30;99.90;;;;;;1043241;28;20059;-70
2022/09/01 02:17:05;;;;;;;2.35;0.88;;;21.30;99.90;;;;;;1043686;28;20021;-70
2022/09/01 02:17:38;;;;;;;1.77;1.10;;;21.20;99.90;;;;;;1042874;28;20047;-70
2022/09/01 02:18:13;;;;;;;1.02;0.63;;;21.20;99.90;;;;;;1043565;28;20044;-70
2022/09/01 02:18:48;;;;;;;1.05;0.80;;;21.20;99.90;;;;;;1043059;28;20037;-71
2022/09/01 02:19:19;;;;;;;1.45;1.13;;;21.20;99.90;;;;;;1042893;28;20037;-71
2022/09/01 02:19:56;;;;;;;1.27;1.02;;;21.20;99.90;;;;;;1042999;28;20071;-70
2022/09/01 02:20:31;;;;;;;1.15;0.90;;;21.20;99.90;;;;;;1039380;28;20067;-71
2022/09/01 02:21:10;;;;;;;2.05;0.70;;;21.20;99.90;;;;;;1041132;28;20028;-70
2022/09/01 02:21:43;;;;;;;;;;;21.20;99.90;;;;;;1043984;28;20096;-70
2022/09/01 02:22:14;;;;;;;1.13;0.90;;;21.20;99.90;;;;;;1043278;28;19909;-70
2022/09/01 02:22:44;;;;;;;1.47;0.90;;;21.20;99.90;;;;;;1042838;28;20017;-70
2022/09/01 02:23:16;;;;;;;1.30;1.10;;;21.20;99.90;;;;;;1043593;28;20836;-70
2022/09/01 02:23:58;;;;;;;1.63;1.05;;;21.20;99.90;;;;;;1043041;28;20016;-70
2022/09/01 02:24:30;;;;;;;1.38;1.10;;;21.20;99.90;;;;;;1043508;28;20021;-70
2022/09/01 02:25:01;;;;;;;1.50;0.95;;;21.20;99.90;;;;;;1043445;28;20013;-71
2022/09/01 02:25:31;;;;;;;1.07;0.80;;;21.20;99.90;;;;;;1043739;28;20108;-72
2022/09/01 02:26:02;;;;;;;1.10;0.90;;;21.20;99.90;;;;;;1043384;28;20017;-71
2022/09/01 02:26:41;;;;;;;0.83;0.60;;;21.20;99.90;;;;;;1043514;28;20036;-71
2022/09/01 02:27:14;;;;;;;1.30;1.00;;;21.20;99.90;;;;;;1043467;28;20017;-71
2022/09/01 02:27:48;;;;;;;0.60;0.60;;;21.20;99.90;;;;;;1043463;28;20025;-71
2022/09/01 02:28:21;;;;;;;1.20;0.80;;;21.20;99.90;;;;;;1043693;28;20551;-71
2022/09/01 02:28:53;;;;;;;1.35;0.88;;;21.20;99.90;;;;;;1043040;28;20017;-70
2022/09/01 02:29:25;;;;;;;1.33;1.00;;;21.20;99.90;;;;;;1042849;28;20094;-70
2022/09/01 02:29:57;;;;;;;1.95;1.00;;;21.10;99.90;;;;;;1043318;28;20092;-71
2022/09/01 02:30:31;;;;;;;0.90;0.77;;;21.10;99.90;;;;;;1042987;28;20021;-71
2022/09/01 02:31:04;;;;;;;0.80;0.68;;;21.10;99.90;;;;;;1043894;28;20044;-71
2022/09/01 02:31:38;;;;;;;1.00;0.90;;;21.10;99.90;;;;;;1043329;28;20017;-70
2022/09/01 02:32:10;;;;;;;1.25;1.10;;;21.10;99.90;;;;;;1043136;28;20688;-70
2022/09/01 02:32:40;;;;;;;1.38;1.02;;;21.10;99.90;;;;;;1043258;28;20116;-70
2022/09/01 02:33:21;;;;;;;1.07;0.93;;;21.10;99.90;;;;;;1038980;28;20021;-71
2022/09/01 02:33:53;;;;;;;1.13;0.80;;;21.10;99.90;;;;;;1039328;28;20025;-70
2022/09/01 02:34:26;;;;;;;1.60;0.90;;;21.10;99.90;;;;;;1040128;28;20112;-70
2022/09/01 02:35:00;;;;;;;1.60;0.80;;;21.10;99.90;;;;;;1043667;28;20679;-70
2022/09/01 02:35:33;;;;;;;0.70;0.70;;;21.10;99.90;;;;;;1042903;28;20099;-70
2022/09/01 02:36:07;;;;;;;0.93;0.73;;;21.10;99.90;;;;;;1043415;28;20074;-70
2022/09/01 02:36:47;;;;;;;0.98;0.73;;;21.10;99.90;;;;;;1043036;28;20025;-70
2022/09/01 02:37:24;;;;;;;0.98;0.75;;;21.10;99.90;;;;;;1043062;28;20025;-70
2022/09/01 02:37:57;;;;;;;1.13;0.90;;;21.10;99.90;;;;;;1038895;28;20124;-70
2022/09/01 02:38:28;;;;;;;1.20;0.85;;;21.10;99.90;;;;;;1037641;28;20024;-70
2022/09/01 02:38:59;;;;;;;1.30;1.00;;;21.10;99.90;;;;;;1036174;28;20725;-68
2022/09/01 02:39:32;;;;;;;0.97;0.60;;;21.10;99.90;;;;;;1039052;28;20063;-69
2022/09/01 02:40:03;;;;;;;2.08;0.90;;;21.10;99.90;;;;;;1039836;28;20010;-70
2022/09/01 02:40:33;;;;;;;2.50;0.90;;;21.10;99.90;;;;;;1043279;28;20021;-69
2022/09/01 02:41:04;;;;;;;1.27;0.87;;;21.10;99.90;;;;;;1043283;28;20352;-69
2022/09/01 02:41:34;;;;;;;1.20;0.77;;;21.20;99.90;;;;;;1042734;28;20107;-70
2022/09/01 02:42:07;;;;;;;1.67;0.80;;;21.20;99.90;;;;;;1042739;28;20106;-70
2022/09/01 02:42:42;;;;;;;1.45;1.02;;;21.20;99.90;;;;;;1043126;28;20365;-69
2022/09/01 02:43:18;;;;;;;1.13;0.93;;;21.20;99.90;;;;;;1039157;28;20020;-70
2022/09/01 02:43:49;;;;;;;1.17;0.90;;;21.20;99.90;;;;;;1040727;28;20017;-70
2022/09/01 02:44:21;;;;;;;0.73;0.73;;;21.20;99.90;;;;;;1043295;28;20017;-70
2022/09/01 02:44:57;;;;;;;1.58;0.90;;;21.20;99.90;;;;;;1043075;28;20021;-71
2022/09/01 02:45:28;;;;;;;1.30;0.75;;;21.20;99.90;;;;;;1042993;28;20013;-69
2022/09/01 02:46:00;;;;;;;0.77;0.70;;;21.20;99.90;;;;;;1043206;28;20013;-70
2022/09/01 02:46:31;;;;;;;1.27;0.77;;;21.20;99.90;;;;;;1043296;28;20087;-69
2022/09/01 02:47:04;;;;;;;1.10;1.00;;;21.20;99.90;;;;;;1042963;28;20146;-70
2022/09/01 02:47:34;;;;;;;3.20;0.90;;;21.20;99.90;;;;;;1043675;28;20013;-70
2022/09/01 02:48:09;;;;;;;1.70;0.90;;;21.20;99.90;;;;;;1043299;28;20009;-70
2022/09/01 02:48:44;;;;;;;2.63;0.95;;;21.20;99.90;;;;;;1043690;28;20054;-73
2022/09/01 02:49:27;;;;;;;1.35;0.90;;;21.20;99.90;;;;;;1042724;28;20440;-70
2022/09/01 02:50:02;;;;;;;1.70;0.75;;;21.10;99.90;;;;;;1039519;28;20009;-70
2022/09/01 02:50:32;;;;;;;2.85;1.05;;;21.20;99.90;;;;;;1042410;28;20571;-70
2022/09/01 02:51:13;;;;;;;1.20;0.80;;;21.10;99.90;;;;;;1043387;28;20580;-70
2022/09/01 02:51:46;;;;;;;3.35;0.90;;;21.20;99.90;;;;;;1043709;28;20048;-70
2022/09/01 02:52:19;;;;;;;1.55;0.90;;;21.10;99.90;;;;;;1043341;28;20020;-69
2022/09/01 02:52:53;;;;;;;2.70;0.90;;;21.10;99.90;;;;;;1043472;28;20051;-69
2022/09/01 02:53:25;;;;;;;0.60;0.60;;;21.10;99.90;;;;;;1043041;28;20031;-70
2022/09/01 02:53:56;;;;;;;1.15;0.85;;;21.10;99.90;;;;;;1043300;28;20710;-70
2022/09/01 02:54:29;;;;;;;2.08;1.00;;;21.10;99.90;;;;;;1042298;28;20398;-70
2022/09/01 02:55:01;;;;;;;1.42;1.00;;;21.10;99.90;;;;;;1043144;28;20344;-70